sensor_id;sensor_type;location;lat;lon;timestamp;P1;durP1;ratioP1;P2;durP2;ratioP2
76234;SDS011;65036;50.934;4.420;2022-11-15T15:43:05;20.10;;;10.55;;
76234;SDS011;65036;50.934;4.420;2022-11-15T15:45:34;25.50;;;11.20;;
76234;SDS011;65036;50.934;4.420;2022-11-15T15:48:01;27.77;;;12.55;;
76234;SDS011;65036;50.934;4.420;2022-11-15T15:52:51;28.52;;;11.05;;
76234;SDS011;65036;50.934;4.420;2022-11-15T15:59:40;23.30;;;11.35;;
76234;SDS011;65036;50.934;4.420;2022-11-15T16:02:08;23.02;;;11.02;;
76234;SDS011;65036;50.934;4.420;2022-11-15T16:04:36;19.17;;;9.98;;
76234;SDS011;65036;50.934;4.420;2022-11-15T16:07:02;21.58;;;10.05;;
76234;SDS011;65036;50.934;4.420;2022-11-15T16:09:28;18.50;;;10.15;;
76234;SDS011;65036;50.934;4.420;2022-11-15T16:12:15;18.27;;;10.05;;
76234;SDS011;65036;50.934;4.420;2022-11-15T16:27:33;15.38;;;9.68;;
76234;SDS011;65036;50.934;4.420;2022-11-15T16:29:59;18.77;;;9.43;;
76234;SDS011;65036;50.934;4.420;2022-11-15T16:32:24;19.52;;;8.50;;
76234;SDS011;65036;50.934;4.420;2022-11-15T16:34:50;14.15;;;7.65;;
76234;SDS011;65036;50.934;4.420;2022-11-15T16:37:24;15.35;;;7.93;;
76234;SDS011;65036;50.934;4.420;2022-11-15T16:39:50;13.85;;;8.25;;
76234;SDS011;65036;50.934;4.420;2022-11-15T16:42:15;16.75;;;7.63;;
76234;SDS011;65036;50.934;4.420;2022-11-15T16:44:40;14.85;;;7.43;;
76234;SDS011;65036;50.934;4.420;2022-11-15T16:47:12;15.82;;;7.85;;
76234;SDS011;65036;50.934;4.420;2022-11-15T16:49:43;15.43;;;7.25;;
76234;SDS011;65036;50.934;4.420;2022-11-15T16:52:09;16.30;;;7.90;;
76234;SDS011;65036;50.934;4.420;2022-11-15T16:54:34;16.05;;;7.93;;
76234;SDS011;65036;50.934;4.420;2022-11-15T16:57:00;10.88;;;6.55;;
76234;SDS011;65036;50.934;4.420;2022-11-15T16:59:25;16.75;;;7.18;;
76234;SDS011;65036;50.934;4.420;2022-11-15T17:01:50;13.60;;;7.03;;
76234;SDS011;65036;50.934;4.420;2022-11-15T17:04:17;14.05;;;5.70;;
76234;SDS011;65036;50.934;4.420;2022-11-15T17:06:43;9.75;;;5.28;;
76234;SDS011;65036;50.934;4.420;2022-11-15T17:09:14;11.68;;;6.63;;
76234;SDS011;65036;50.934;4.420;2022-11-15T17:11:42;10.73;;;6.22;;
76234;SDS011;65036;50.934;4.420;2022-11-15T17:14:09;11.98;;;5.90;;
76234;SDS011;65036;50.934;4.420;2022-11-15T17:16:35;11.70;;;5.72;;
76234;SDS011;65036;50.934;4.420;2022-11-15T17:19:04;10.75;;;5.35;;
76234;SDS011;65036;50.934;4.420;2022-11-15T17:21:29;14.07;;;6.45;;
76234;SDS011;65036;50.934;4.420;2022-11-15T17:23:55;9.27;;;5.20;;
76234;SDS011;65036;50.934;4.420;2022-11-15T17:26:23;9.93;;;5.47;;
76234;SDS011;65036;50.934;4.420;2022-11-15T17:28:48;10.45;;;5.22;;
76234;SDS011;65036;50.934;4.420;2022-11-15T17:31:19;8.90;;;4.75;;
76234;SDS011;65036;50.934;4.420;2022-11-15T17:33:44;9.50;;;5.30;;
76234;SDS011;65036;50.934;4.420;2022-11-15T17:36:10;8.57;;;4.38;;
76234;SDS011;65036;50.934;4.420;2022-11-15T17:38:36;12.20;;;6.15;;
76234;SDS011;65036;50.934;4.420;2022-11-15T17:41:13;9.75;;;5.07;;
76234;SDS011;65036;50.934;4.420;2022-11-15T17:43:39;8.70;;;4.25;;
76234;SDS011;65036;50.934;4.420;2022-11-15T17:46:09;12.40;;;4.70;;
76234;SDS011;65036;50.934;4.420;2022-11-15T17:48:37;10.73;;;4.95;;
76234;SDS011;65036;50.934;4.420;2022-11-15T17:51:03;6.97;;;4.00;;
76234;SDS011;65036;50.934;4.420;2022-11-15T17:53:31;10.23;;;4.13;;
76234;SDS011;65036;50.934;4.420;2022-11-15T17:56:07;9.55;;;4.35;;
76234;SDS011;65036;50.934;4.420;2022-11-15T17:58:33;10.25;;;4.10;;
76234;SDS011;65036;50.934;4.420;2022-11-15T18:01:06;7.93;;;4.40;;
76234;SDS011;65036;50.934;4.420;2022-11-15T18:03:40;8.68;;;4.00;;
76234;SDS011;65036;50.934;4.420;2022-11-15T18:06:06;8.98;;;3.75;;
76234;SDS011;65036;50.934;4.420;2022-11-15T18:08:36;7.95;;;3.83;;
76234;SDS011;65036;50.934;4.420;2022-11-15T18:11:06;8.20;;;3.53;;
76234;SDS011;65036;50.934;4.420;2022-11-15T18:13:34;6.75;;;3.47;;
76234;SDS011;65036;50.934;4.420;2022-11-15T18:16:03;7.60;;;3.63;;
76234;SDS011;65036;50.934;4.420;2022-11-15T18:18:30;6.85;;;3.72;;
76234;SDS011;65036;50.934;4.420;2022-11-15T18:21:03;6.25;;;3.63;;
76234;SDS011;65036;50.934;4.420;2022-11-15T18:23:30;8.07;;;3.35;;
76234;SDS011;65036;50.934;4.420;2022-11-15T18:25:56;12.07;;;5.25;;
76234;SDS011;65036;50.934;4.420;2022-11-15T18:28:21;5.35;;;3.00;;
76234;SDS011;65036;50.934;4.420;2022-11-15T18:30:47;9.50;;;3.50;;
76234;SDS011;65036;50.934;4.420;2022-11-15T18:33:12;6.35;;;3.03;;
76234;SDS011;65036;50.934;4.420;2022-11-15T18:35:38;5.40;;;2.78;;
76234;SDS011;65036;50.934;4.420;2022-11-15T18:38:03;5.22;;;3.00;;
76234;SDS011;65036;50.934;4.420;2022-11-15T18:40:29;7.88;;;2.70;;
76234;SDS011;65036;50.934;4.420;2022-11-15T18:42:54;5.85;;;3.00;;
76234;SDS011;65036;50.934;4.420;2022-11-15T18:45:20;7.70;;;3.90;;
76234;SDS011;65036;50.934;4.420;2022-11-15T18:47:48;5.97;;;2.97;;
76234;SDS011;65036;50.934;4.420;2022-11-15T18:50:25;7.40;;;2.50;;
76234;SDS011;65036;50.934;4.420;2022-11-15T18:52:50;5.90;;;2.80;;
76234;SDS011;65036;50.934;4.420;2022-11-15T18:55:19;6.60;;;2.60;;
76234;SDS011;65036;50.934;4.420;2022-11-15T18:57:44;6.40;;;2.80;;
76234;SDS011;65036;50.934;4.420;2022-11-15T19:00:10;5.43;;;2.88;;
76234;SDS011;65036;50.934;4.420;2022-11-15T19:02:38;6.70;;;3.10;;
76234;SDS011;65036;50.934;4.420;2022-11-15T19:05:04;7.00;;;3.00;;
76234;SDS011;65036;50.934;4.420;2022-11-15T19:07:30;5.78;;;2.92;;
76234;SDS011;65036;50.934;4.420;2022-11-15T19:09:55;4.85;;;2.90;;
76234;SDS011;65036;50.934;4.420;2022-11-15T19:12:22;3.72;;;2.53;;
76234;SDS011;65036;50.934;4.420;2022-11-15T19:14:47;4.18;;;2.75;;
76234;SDS011;65036;50.934;4.420;2022-11-15T19:17:13;5.65;;;2.50;;
76234;SDS011;65036;50.934;4.420;2022-11-15T19:19:38;5.13;;;2.50;;
76234;SDS011;65036;50.934;4.420;2022-11-15T19:22:04;6.88;;;2.63;;
76234;SDS011;65036;50.934;4.420;2022-11-15T19:24:39;7.03;;;2.92;;
76234;SDS011;65036;50.934;4.420;2022-11-15T19:27:05;38.13;;;5.18;;
76234;SDS011;65036;50.934;4.420;2022-11-15T19:29:30;7.97;;;2.75;;
76234;SDS011;65036;50.934;4.420;2022-11-15T19:31:56;6.65;;;2.85;;
76234;SDS011;65036;50.934;4.420;2022-11-15T19:34:21;7.20;;;3.08;;
76234;SDS011;65036;50.934;4.420;2022-11-15T19:36:46;7.10;;;2.65;;
76234;SDS011;65036;50.934;4.420;2022-11-15T19:39:12;5.72;;;2.85;;
76234;SDS011;65036;50.934;4.420;2022-11-15T19:41:42;4.70;;;2.38;;
76234;SDS011;65036;50.934;4.420;2022-11-15T19:44:08;4.43;;;2.95;;
76234;SDS011;65036;50.934;4.420;2022-11-15T19:46:34;5.85;;;2.88;;
76234;SDS011;65036;50.934;4.420;2022-11-15T19:55:20;6.43;;;2.90;;
76234;SDS011;65036;50.934;4.420;2022-11-15T19:57:46;4.18;;;2.50;;
76234;SDS011;65036;50.934;4.420;2022-11-15T20:00:11;5.80;;;2.28;;
76234;SDS011;65036;50.934;4.420;2022-11-15T20:02:37;5.32;;;2.78;;
76234;SDS011;65036;50.934;4.420;2022-11-15T20:05:03;4.60;;;2.60;;
76234;SDS011;65036;50.934;4.420;2022-11-15T20:07:28;6.20;;;2.60;;
76234;SDS011;65036;50.934;4.420;2022-11-15T20:09:54;5.13;;;2.28;;
76234;SDS011;65036;50.934;4.420;2022-11-15T20:12:19;7.28;;;2.65;;
76234;SDS011;65036;50.934;4.420;2022-11-15T20:14:45;5.82;;;2.60;;
76234;SDS011;65036;50.934;4.420;2022-11-15T20:17:10;3.78;;;2.60;;
76234;SDS011;65036;50.934;4.420;2022-11-15T20:19:36;5.40;;;2.42;;
76234;SDS011;65036;50.934;4.420;2022-11-15T20:22:01;5.07;;;2.53;;
76234;SDS011;65036;50.934;4.420;2022-11-15T20:24:27;5.55;;;2.28;;
76234;SDS011;65036;50.934;4.420;2022-11-15T20:26:52;5.90;;;2.30;;
76234;SDS011;65036;50.934;4.420;2022-11-15T20:29:17;5.03;;;2.92;;
76234;SDS011;65036;50.934;4.420;2022-11-15T20:31:56;3.28;;;2.03;;
76234;SDS011;65036;50.934;4.420;2022-11-15T20:34:50;7.90;;;2.20;;
76234;SDS011;65036;50.934;4.420;2022-11-15T20:37:15;3.78;;;2.40;;
76234;SDS011;65036;50.934;4.420;2022-11-15T20:39:46;4.78;;;2.33;;
76234;SDS011;65036;50.934;4.420;2022-11-15T20:42:11;4.13;;;2.33;;
76234;SDS011;65036;50.934;4.420;2022-11-15T20:44:37;5.60;;;2.65;;
76234;SDS011;65036;50.934;4.420;2022-11-15T20:47:02;5.78;;;2.30;;
76234;SDS011;65036;50.934;4.420;2022-11-15T20:49:28;3.67;;;2.05;;
76234;SDS011;65036;50.934;4.420;2022-11-15T20:51:58;3.95;;;1.90;;
76234;SDS011;65036;50.934;4.420;2022-11-15T20:54:27;3.30;;;1.70;;
76234;SDS011;65036;50.934;4.420;2022-11-15T20:57:00;4.47;;;2.45;;
76234;SDS011;65036;50.934;4.420;2022-11-15T21:00:12;4.93;;;2.03;;
76234;SDS011;65036;50.934;4.420;2022-11-15T21:02:38;4.55;;;2.15;;
76234;SDS011;65036;50.934;4.420;2022-11-15T21:05:04;4.50;;;2.10;;
76234;SDS011;65036;50.934;4.420;2022-11-15T21:07:30;3.22;;;2.20;;
76234;SDS011;65036;50.934;4.420;2022-11-15T21:09:55;4.53;;;2.42;;
76234;SDS011;65036;50.934;4.420;2022-11-15T21:12:39;4.80;;;2.60;;
76234;SDS011;65036;50.934;4.420;2022-11-15T21:15:05;5.97;;;2.25;;
76234;SDS011;65036;50.934;4.420;2022-11-15T21:17:32;5.85;;;2.55;;
76234;SDS011;65036;50.934;4.420;2022-11-15T21:19:59;6.65;;;2.08;;
76234;SDS011;65036;50.934;4.420;2022-11-15T21:22:32;7.05;;;2.72;;
76234;SDS011;65036;50.934;4.420;2022-11-15T21:24:57;6.35;;;1.90;;
76234;SDS011;65036;50.934;4.420;2022-11-15T21:27:23;5.80;;;2.20;;
76234;SDS011;65036;50.934;4.420;2022-11-15T21:29:49;4.22;;;1.95;;
76234;SDS011;65036;50.934;4.420;2022-11-15T21:32:14;6.55;;;2.33;;
76234;SDS011;65036;50.934;4.420;2022-11-15T21:34:40;5.65;;;1.77;;
76234;SDS011;65036;50.934;4.420;2022-11-15T21:37:05;5.18;;;2.38;;
76234;SDS011;65036;50.934;4.420;2022-11-15T21:39:31;3.72;;;2.00;;
76234;SDS011;65036;50.934;4.420;2022-11-15T21:41:57;5.15;;;2.40;;
76234;SDS011;65036;50.934;4.420;2022-11-15T21:44:22;3.70;;;1.80;;
76234;SDS011;65036;50.934;4.420;2022-11-15T21:46:47;5.90;;;2.00;;
76234;SDS011;65036;50.934;4.420;2022-11-15T21:49:13;2.97;;;1.80;;
76234;SDS011;65036;50.934;4.420;2022-11-15T21:51:39;3.58;;;2.03;;
76234;SDS011;65036;50.934;4.420;2022-11-15T21:54:05;3.45;;;1.83;;
76234;SDS011;65036;50.934;4.420;2022-11-15T21:56:30;2.75;;;1.63;;
76234;SDS011;65036;50.934;4.420;2022-11-15T21:58:56;3.10;;;1.52;;
76234;SDS011;65036;50.934;4.420;2022-11-15T22:01:25;3.40;;;1.92;;
76234;SDS011;65036;50.934;4.420;2022-11-15T22:04:10;4.80;;;1.73;;
76234;SDS011;65036;50.934;4.420;2022-11-15T22:06:35;3.47;;;1.80;;
76234;SDS011;65036;50.934;4.420;2022-11-15T22:09:01;3.35;;;2.03;;
76234;SDS011;65036;50.934;4.420;2022-11-15T22:11:31;4.80;;;2.33;;
76234;SDS011;65036;50.934;4.420;2022-11-15T22:13:57;5.28;;;1.92;;
76234;SDS011;65036;50.934;4.420;2022-11-15T22:16:23;3.33;;;1.65;;
76234;SDS011;65036;50.934;4.420;2022-11-15T22:18:48;2.97;;;2.03;;
76234;SDS011;65036;50.934;4.420;2022-11-15T22:21:14;3.67;;;2.15;;
76234;SDS011;65036;50.934;4.420;2022-11-15T22:23:41;4.32;;;2.00;;
76234;SDS011;65036;50.934;4.420;2022-11-15T22:26:09;3.05;;;1.80;;
76234;SDS011;65036;50.934;4.420;2022-11-15T22:28:36;3.28;;;1.73;;
76234;SDS011;65036;50.934;4.420;2022-11-15T22:31:01;4.03;;;1.67;;
76234;SDS011;65036;50.934;4.420;2022-11-15T22:33:30;4.63;;;1.98;;
76234;SDS011;65036;50.934;4.420;2022-11-15T22:35:57;2.58;;;1.63;;
76234;SDS011;65036;50.934;4.420;2022-11-15T22:38:23;2.10;;;1.50;;
76234;SDS011;65036;50.934;4.420;2022-11-15T22:40:49;3.55;;;1.90;;
76234;SDS011;65036;50.934;4.420;2022-11-15T22:43:15;4.13;;;1.73;;
76234;SDS011;65036;50.934;4.420;2022-11-15T22:46:00;4.30;;;1.98;;
76234;SDS011;65036;50.934;4.420;2022-11-15T22:48:27;2.50;;;1.52;;
76234;SDS011;65036;50.934;4.420;2022-11-15T22:50:54;3.75;;;1.80;;
76234;SDS011;65036;50.934;4.420;2022-11-15T22:53:20;3.05;;;2.20;;
76234;SDS011;65036;50.934;4.420;2022-11-15T22:55:53;3.83;;;1.83;;
76234;SDS011;65036;50.934;4.420;2022-11-15T22:58:20;7.05;;;1.85;;
76234;SDS011;65036;50.934;4.420;2022-11-15T23:00:52;4.40;;;1.65;;
76234;SDS011;65036;50.934;4.420;2022-11-15T23:03:19;3.65;;;1.60;;
76234;SDS011;65036;50.934;4.420;2022-11-15T23:05:45;2.25;;;1.40;;
76234;SDS011;65036;50.934;4.420;2022-11-15T23:08:11;2.72;;;1.42;;
76234;SDS011;65036;50.934;4.420;2022-11-15T23:10:37;3.33;;;1.60;;
76234;SDS011;65036;50.934;4.420;2022-11-15T23:13:22;2.75;;;1.63;;
76234;SDS011;65036;50.934;4.420;2022-11-15T23:15:48;7.72;;;2.40;;
76234;SDS011;65036;50.934;4.420;2022-11-15T23:18:34;2.83;;;1.70;;
76234;SDS011;65036;50.934;4.420;2022-11-15T23:21:15;2.78;;;2.08;;
76234;SDS011;65036;50.934;4.420;2022-11-15T23:24:05;4.65;;;1.60;;
76234;SDS011;65036;50.934;4.420;2022-11-15T23:26:32;3.15;;;1.63;;
76234;SDS011;65036;50.934;4.420;2022-11-15T23:28:58;3.05;;;1.52;;
76234;SDS011;65036;50.934;4.420;2022-11-15T23:31:23;3.00;;;1.55;;
76234;SDS011;65036;50.934;4.420;2022-11-15T23:34:07;3.08;;;1.55;;
76234;SDS011;65036;50.934;4.420;2022-11-15T23:36:32;3.40;;;1.83;;
76234;SDS011;65036;50.934;4.420;2022-11-15T23:38:58;2.47;;;1.60;;
76234;SDS011;65036;50.934;4.420;2022-11-15T23:41:23;4.65;;;1.38;;
76234;SDS011;65036;50.934;4.420;2022-11-15T23:43:49;2.25;;;1.48;;
76234;SDS011;65036;50.934;4.420;2022-11-15T23:46:15;2.33;;;1.40;;
76234;SDS011;65036;50.934;4.420;2022-11-15T23:48:41;3.47;;;1.50;;
76234;SDS011;65036;50.934;4.420;2022-11-15T23:51:07;4.03;;;1.45;;
76234;SDS011;65036;50.934;4.420;2022-11-15T23:53:32;2.22;;;1.48;;
76234;SDS011;65036;50.934;4.420;2022-11-15T23:56:02;2.67;;;1.65;;
76234;SDS011;65036;50.934;4.420;2022-11-15T23:58:29;2.45;;;1.45;;
